Terminal Aerodrome Forecast
Issued by NWS

Home | Current Version | Previous Version | Text Only | Print | Product List | Glossary On
Versions: 1 2 3 4 5 6 7 8 9 10 11 12 13 14 15 16 17 18 19 20 21 22 23
658
FTUS46 KSGX 032321
TAFSAN
TAF
KSAN 032321Z 0400/0506 30008KT P6SM FEW011 SCT025 SCT200
     FM040200 VRB04KT P6SM SCT011 BKN200
     FM040600 VRB04KT P6SM OVC012
     FM041600 VRB05KT P6SM BKN022
     FM042000 25009KT P6SM BKN025
     FM050200 VRB04KT P6SM OVC022=

USA.gov is the U.S. government's official web portal to all federal, state and local government web resources and services.